Time;durP1;ratioP1;P1;durP2;ratioP2;P2;SDS_P1;SDS_P2;PMS_P1;PMS_P2;Temp;Humidity;BMP_temperature;BMP_pressure;BME280_temperature;BME280_humidity;BME280_pressure;Samples;Min_cycle;Max_cycle;Signal;HPM_P1;HPM_P2
2021/10/28 12:23:15;;;;;;;2.37;1.07;;;13.60;99.90;;;;;;5111373;28;20953;-84
2021/10/28 12:45:31;;;;;;;2.00;1.47;;;13.50;99.90;;;;;;5109090;28;21130;-92
2021/10/28 12:48:24;;;;;;;0.60;0.60;;;13.50;99.90;;;;;;5111673;28;20450;-93
2021/10/28 12:51:04;;;;;;;1.27;1.17;;;13.50;99.90;;;;;;5091533;28;20428;-91
2021/10/28 12:53:53;;;;;;;1.20;0.90;;;13.50;99.90;;;;;;5092160;28;20480;-91
2021/10/28 13:38:09;;;;;;;1.27;0.90;;;13.60;99.90;;;;;;5109689;28;20796;-88
2021/10/28 13:48:59;;;;;;;0.70;0.60;;;13.40;99.90;;;;;;5096396;28;20416;-86
2021/10/28 13:51:45;;;;;;;0.70;0.50;;;13.40;99.90;;;;;;5096269;28;20428;-87
2021/10/28 14:00:08;;;;;;;2.90;0.87;;;13.10;99.90;;;;;;5096293;28;20984;-86
2021/10/28 14:25:51;;;;;;;0.40;0.40;;;13.00;99.90;;;;;;5033561;28;20505;-86
2021/10/28 14:31:38;;;;;;;1.07;0.70;;;13.00;99.90;;;;;;5095563;28;20513;-87
2021/10/28 15:29:47;;;;;;;0.60;0.60;;;13.50;99.90;;;;;;5053230;28;20461;-89
2021/10/28 15:35:20;;;;;;;0.40;0.40;;;13.30;99.90;;;;;;5078966;28;20768;-88
2021/10/28 15:37:57;;;;;;;1.10;1.10;;;13.20;99.90;;;;;;5095186;28;20479;-89
2021/10/28 15:40:33;;;;;;;0.40;0.40;;;13.10;99.90;;;;;;5094999;28;20456;-88
2021/10/28 15:43:31;;;;;;;0.70;0.60;;;12.90;99.90;;;;;;5094514;28;20475;-85
2021/10/28 15:57:06;;;;;;;0.73;0.73;;;12.50;99.90;;;;;;5041013;28;20486;-89
2021/10/28 16:21:52;;;;;;;1.93;1.37;;;11.90;99.90;;;;;;5082373;28;20890;-87
2021/10/28 16:24:24;;;;;;;0.70;0.70;;;11.90;99.90;;;;;;5082266;28;20436;-87
2021/10/28 16:26:51;;;;;;;1.10;1.00;;;11.90;99.90;;;;;;5093831;28;20432;-87
2021/10/28 16:29:18;;;;;;;1.43;0.97;;;11.80;99.90;;;;;;5100492;28;20517;-87
2021/10/28 16:31:45;;;;;;;0.50;0.40;;;11.80;99.90;;;;;;5096047;28;20425;-87
2021/10/28 16:34:13;;;;;;;0.87;0.80;;;11.70;99.90;;;;;;5093289;28;20432;-86
2021/10/28 16:36:41;;;;;;;1.33;1.03;;;11.70;99.90;;;;;;5093821;28;20903;-86
2021/10/28 16:39:11;;;;;;;1.40;1.30;;;11.60;99.90;;;;;;5093779;28;20435;-88
2021/10/28 16:41:40;;;;;;;6.60;1.27;;;11.60;99.90;;;;;;5093741;28;20877;-88
2021/10/28 16:44:08;;;;;;;1.73;1.30;;;11.60;99.90;;;;;;5093572;28;20933;-86
2021/10/28 16:46:36;;;;;;;0.83;0.73;;;11.60;99.90;;;;;;5093059;28;20462;-86
2021/10/28 16:49:04;;;;;;;1.13;0.63;;;11.70;99.90;;;;;;5093729;28;20432;-88
2021/10/28 16:51:32;;;;;;;1.33;0.60;;;11.80;99.90;;;;;;5093830;28;20428;-87
2021/10/28 16:53:58;;;;;;;1.53;1.43;;;11.70;99.90;;;;;;5092942;28;20459;-88
2021/10/28 16:56:25;;;;;;;1.10;1.00;;;11.80;99.90;;;;;;5093674;28;20455;-87
2021/10/28 16:58:53;;;;;;;0.97;0.80;;;11.80;99.90;;;;;;5093324;28;20444;-87
2021/10/28 17:01:20;;;;;;;0.80;0.77;;;11.80;99.90;;;;;;5093547;28;20488;-87
2021/10/28 17:03:47;;;;;;;1.07;0.83;;;11.80;99.90;;;;;;5093199;28;20462;-86
2021/10/28 17:06:16;;;;;;;4.13;0.80;;;11.80;99.90;;;;;;5093617;28;20444;-87
2021/10/28 17:08:43;;;;;;;0.97;0.90;;;11.80;99.90;;;;;;5093424;28;20448;-87
2021/10/28 17:11:10;;;;;;;4.90;1.67;;;11.80;99.90;;;;;;5093158;28;20927;-87
2021/10/28 17:13:37;;;;;;;2.20;1.10;;;11.90;99.90;;;;;;5093536;28;20459;-87
2021/10/28 17:16:06;;;;;;;1.20;0.80;;;11.90;99.90;;;;;;5093653;28;20428;-84
2021/10/28 17:18:33;;;;;;;0.80;0.80;;;11.90;99.90;;;;;;5097255;28;20452;-88
2021/10/28 17:21:04;;;;;;;1.83;1.47;;;11.80;99.90;;;;;;5097036;28;20990;-88
2021/10/28 17:23:33;;;;;;;1.20;0.87;;;11.80;99.90;;;;;;5097270;28;20486;-85
2021/10/28 17:26:03;;;;;;;2.43;1.10;;;11.80;99.90;;;;;;5096667;28;20451;-86
2021/10/28 17:28:29;;;;;;;1.30;1.00;;;11.70;99.90;;;;;;5096518;28;20447;-86
2021/10/28 17:30:56;;;;;;;1.57;0.90;;;11.60;99.90;;;;;;5096623;28;20492;-85
2021/10/28 17:33:24;;;;;;;0.90;0.60;;;11.60;99.90;;;;;;5098403;28;20474;-85
2021/10/28 17:35:51;;;;;;;0.80;0.80;;;11.60;99.90;;;;;;5096716;28;20503;-85
2021/10/28 17:38:18;;;;;;;1.40;1.30;;;11.50;99.90;;;;;;5096925;28;20431;-85
2021/10/28 17:40:46;;;;;;;2.27;1.53;;;11.50;99.90;;;;;;5096332;28;20456;-85
2021/10/28 17:43:14;;;;;;;0.87;0.87;;;11.40;99.90;;;;;;5096506;28;20467;-86
2021/10/28 17:45:41;;;;;;;4.70;1.87;;;11.30;99.90;;;;;;5096425;28;20511;-85
2021/10/28 17:48:09;;;;;;;0.60;0.60;;;11.30;99.90;;;;;;5096189;28;20961;-85
2021/10/28 17:50:37;;;;;;;0.73;0.70;;;11.30;99.90;;;;;;5096250;28;20493;-85
2021/10/28 17:53:04;;;;;;;3.33;1.10;;;11.20;99.90;;;;;;5096476;28;20555;-85
2021/10/28 17:55:31;;;;;;;1.50;1.17;;;11.20;99.90;;;;;;5096542;28;20444;-86
2021/10/28 17:57:58;;;;;;;0.60;0.60;;;11.20;99.90;;;;;;5096114;28;20452;-85
2021/10/28 18:00:25;;;;;;;2.57;0.90;;;11.20;99.90;;;;;;5096103;28;20484;-86
2021/10/28 18:02:53;;;;;;;1.33;0.67;;;11.20;99.90;;;;;;5096275;28;20491;-87
2021/10/28 18:05:20;;;;;;;0.57;0.57;;;11.20;99.90;;;;;;5096212;28;20452;-86
2021/10/28 18:07:49;;;;;;;3.90;1.40;;;11.20;99.90;;;;;;5095982;28;20862;-85
2021/10/28 18:10:16;;;;;;;5.90;1.20;;;11.20;99.90;;;;;;5096027;28;20461;-85
2021/10/28 18:12:43;;;;;;;1.63;1.33;;;11.30;99.90;;;;;;5096002;28;20474;-85
2021/10/28 18:15:10;;;;;;;1.63;1.00;;;11.20;99.90;;;;;;5096787;28;21000;-85
2021/10/28 18:17:38;;;;;;;0.63;0.63;;;11.20;99.90;;;;;;5095795;28;20452;-86
2021/10/28 18:20:06;;;;;;;1.47;1.47;;;11.20;99.90;;;;;;5102618;28;20448;-86
2021/10/28 18:22:37;;;;;;;1.30;1.20;;;11.20;99.90;;;;;;5104947;28;20463;-85
2021/10/28 18:25:06;;;;;;;2.90;1.30;;;11.20;99.90;;;;;;5099933;28;20438;-86
2021/10/28 18:27:33;;;;;;;0.60;0.50;;;11.20;99.90;;;;;;5095946;28;20469;-86
2021/10/28 18:30:00;;;;;;;1.63;1.37;;;11.20;99.90;;;;;;5095361;28;20487;-85
2021/10/28 18:32:28;;;;;;;1.43;0.70;;;11.20;99.90;;;;;;5095833;28;20521;-85
2021/10/28 18:34:54;;;;;;;1.27;0.60;;;11.20;99.90;;;;;;5095378;28;20490;-86
2021/10/28 18:37:21;;;;;;;0.80;0.57;;;11.10;99.90;;;;;;5095604;28;20448;-85
2021/10/28 18:39:50;;;;;;;4.33;0.93;;;11.20;99.90;;;;;;5095518;28;20448;-86
2021/10/28 18:42:19;;;;;;;1.23;1.13;;;11.20;99.90;;;;;;5095272;28;20483;-86
2021/10/28 18:44:46;;;;;;;1.83;1.73;;;11.20;99.90;;;;;;5095372;28;20517;-85
2021/10/28 18:47:13;;;;;;;0.93;0.67;;;11.10;99.90;;;;;;5095045;28;20499;-85
2021/10/28 18:49:40;;;;;;;1.13;0.87;;;11.00;99.90;;;;;;5095263;28;20459;-85
2021/10/28 18:52:07;;;;;;;0.70;0.70;;;10.90;99.90;;;;;;5094992;28;20499;-85
2021/10/28 18:54:34;;;;;;;1.07;1.00;;;10.80;99.90;;;;;;5095145;28;20455;-85
2021/10/28 18:57:01;;;;;;;0.87;0.40;;;10.60;99.90;;;;;;5094912;28;20444;-85
2021/10/28 18:59:29;;;;;;;1.07;0.70;;;10.60;99.90;;;;;;5095030;28;20448;-85
2021/10/28 19:01:57;;;;;;;2.60;0.93;;;10.40;99.90;;;;;;5094440;28;21032;-85
2021/10/28 19:04:24;;;;;;;2.20;0.70;;;10.30;99.90;;;;;;5094581;28;20939;-85
2021/10/28 19:06:51;;;;;;;0.97;0.97;;;10.20;99.90;;;;;;5094357;28;20939;-85
2021/10/28 19:09:18;;;;;;;0.97;0.97;;;10.20;99.90;;;;;;5094936;28;20436;-85
2021/10/28 19:11:45;;;;;;;1.23;0.80;;;10.10;99.90;;;;;;5094467;28;20518;-85
2021/10/28 19:14:13;;;;;;;2.43;0.90;;;10.10;99.90;;;;;;5094830;28;20466;-85
2021/10/28 19:16:41;;;;;;;2.53;0.70;;;10.10;99.90;;;;;;5094196;28;20412;-85
2021/10/28 19:19:08;;;;;;;0.50;0.50;;;10.10;99.90;;;;;;5094553;28;20440;-85
2021/10/28 19:21:34;;;;;;;0.57;0.57;;;10.20;99.90;;;;;;5093987;28;21063;-85
2021/10/28 19:24:01;;;;;;;1.50;0.90;;;10.20;99.90;;;;;;5094447;28;20466;-85
2021/10/28 19:26:28;;;;;;;1.53;1.43;;;10.30;99.90;;;;;;5094285;28;20482;-85
2021/10/28 19:28:56;;;;;;;1.60;0.80;;;10.30;99.90;;;;;;5094238;28;20436;-85
2021/10/28 19:31:25;;;;;;;1.93;1.07;;;10.30;99.90;;;;;;5094447;28;20444;-85
2021/10/28 19:33:55;;;;;;;1.70;0.70;;;10.30;99.90;;;;;;5094039;28;20975;-85
2021/10/28 19:36:29;;;;;;;2.17;1.17;;;10.20;99.90;;;;;;5093858;28;20448;-85
2021/10/28 19:41:57;;;;;;;1.60;0.93;;;10.00;99.90;;;;;;5093845;28;20993;-84
2021/10/28 19:47:12;;;;;;;0.93;0.93;;;9.80;99.90;;;;;;5093981;28;20403;-85
2021/10/28 19:49:42;;;;;;;3.23;1.10;;;9.80;99.90;;;;;;5094267;28;20888;-85
2021/10/28 19:52:11;;;;;;;1.50;1.40;;;9.70;99.90;;;;;;5093459;28;20987;-85
2021/10/28 19:54:39;;;;;;;1.73;0.90;;;9.70;99.90;;;;;;5093994;28;20475;-85
2021/10/28 19:57:11;;;;;;;0.63;0.63;;;9.70;99.90;;;;;;5093758;28;20448;-85
2021/10/28 19:59:44;;;;;;;1.37;1.30;;;9.60;99.90;;;;;;5093795;28;20945;-85
2021/10/28 20:02:15;;;;;;;0.80;0.80;;;9.60;99.90;;;;;;5093930;28;20570;-85
2021/10/28 20:07:45;;;;;;;0.60;0.57;;;9.60;99.90;;;;;;5093216;28;20809;-85
2021/10/28 20:13:14;;;;;;;0.57;0.57;;;9.60;99.90;;;;;;5093284;28;20435;-85
2021/10/28 20:21:12;;;;;;;1.20;1.10;;;9.60;99.90;;;;;;5093200;28;20474;-84
2021/10/28 20:23:42;;;;;;;1.00;0.73;;;9.50;99.90;;;;;;5092722;28;20480;-84
2021/10/28 20:26:09;;;;;;;5.23;0.90;;;9.50;99.90;;;;;;5092932;28;21005;-84
2021/10/28 20:28:40;;;;;;;1.23;0.87;;;9.40;99.90;;;;;;5092856;28;20942;-83
2021/10/28 20:31:08;;;;;;;0.70;0.40;;;9.30;99.90;;;;;;5092956;28;20471;-84
2021/10/28 20:33:38;;;;;;;1.27;1.17;;;9.20;99.90;;;;;;5092831;28;20444;-83
2021/10/28 20:37:05;;;;;;;3.20;0.97;;;9.20;99.90;;;;;;5092266;28;20915;-84
2021/10/28 20:39:05;;;;;;;1.20;1.20;;;9.10;99.90;;;;;;5090170;28;20539;-84
2021/10/28 20:41:32;;;;;;;0.90;0.67;;;9.10;99.90;;;;;;5091795;28;20874;-84
2021/10/28 20:43:59;;;;;;;0.83;0.83;;;9.00;99.90;;;;;;5091150;28;20455;-84
2021/10/28 20:46:28;;;;;;;1.03;0.60;;;9.00;99.90;;;;;;5092874;28;20436;-84
2021/10/28 20:48:57;;;;;;;0.73;0.70;;;9.10;99.90;;;;;;5092422;28;20477;-84
2021/10/28 20:51:24;;;;;;;1.03;0.60;;;9.20;99.90;;;;;;5093779;28;20904;-84
2021/10/28 20:53:51;;;;;;;1.90;0.50;;;9.20;99.90;;;;;;5096966;28;20475;-83
2021/10/28 20:56:25;;;;;;;1.23;0.67;;;9.20;99.90;;;;;;5096848;28;20956;-83
2021/10/28 20:58:52;;;;;;;1.20;0.70;;;9.20;99.90;;;;;;5097278;28;20443;-84
2021/10/28 21:01:18;;;;;;;1.40;1.30;;;9.20;99.90;;;;;;5096520;28;20476;-84
2021/10/28 21:03:45;;;;;;;1.43;0.40;;;9.20;99.90;;;;;;5096563;28;20463;-84
2021/10/28 21:06:12;;;;;;;1.00;1.00;;;9.10;99.90;;;;;;5097112;28;20455;-84
2021/10/28 21:08:40;;;;;;;0.70;0.70;;;9.10;99.90;;;;;;5095681;28;20466;-84
2021/10/28 21:11:06;;;;;;;1.80;1.27;;;9.00;99.90;;;;;;5096937;28;20451;-84
2021/10/28 21:13:35;;;;;;;0.50;0.50;;;9.00;99.90;;;;;;5096907;28;20476;-83
2021/10/28 21:16:02;;;;;;;1.53;0.93;;;8.90;99.90;;;;;;5097451;28;20450;-84
2021/10/28 21:18:29;;;;;;;1.07;0.87;;;8.80;99.90;;;;;;5098840;28;20543;-83
2021/10/28 21:20:56;;;;;;;0.83;0.53;;;8.80;99.90;;;;;;5100211;28;20447;-84
2021/10/28 21:23:23;;;;;;;0.80;0.80;;;8.80;99.90;;;;;;5097119;28;20463;-83
2021/10/28 21:25:50;;;;;;;0.80;0.67;;;8.80;99.90;;;;;;5096651;28;20447;-84
2021/10/28 21:28:17;;;;;;;1.60;0.50;;;8.80;99.90;;;;;;5096465;28;20455;-84
2021/10/28 21:30:46;;;;;;;2.60;1.10;;;8.90;99.90;;;;;;5096142;28;20476;-84
2021/10/28 21:33:15;;;;;;;1.37;0.60;;;8.90;99.90;;;;;;5096550;28;20460;-84
2021/10/28 21:35:41;;;;;;;0.80;0.60;;;8.90;99.90;;;;;;5096539;28;20447;-84
2021/10/28 21:38:08;;;;;;;0.93;0.67;;;8.90;99.90;;;;;;5096506;28;20452;-84
2021/10/28 21:40:35;;;;;;;3.80;2.13;;;8.90;99.90;;;;;;5096270;28;20434;-84
2021/10/28 21:43:03;;;;;;;1.43;0.80;;;8.90;99.90;;;;;;5096292;28;20483;-84
2021/10/28 21:45:30;;;;;;;0.63;0.63;;;8.80;99.90;;;;;;5096316;28;20834;-84
2021/10/28 21:47:59;;;;;;;1.07;0.50;;;8.80;99.90;;;;;;5096372;28;20459;-84
2021/10/28 21:50:27;;;;;;;1.37;0.87;;;8.70;99.90;;;;;;5096078;28;21004;-83
2021/10/28 21:52:56;;;;;;;0.50;0.50;;;8.70;99.90;;;;;;5092455;28;20467;-83
2021/10/28 21:55:34;;;;;;;0.40;0.40;;;8.60;99.90;;;;;;5095709;28;20498;-84
2021/10/28 21:58:08;;;;;;;0.93;0.83;;;8.70;99.90;;;;;;5096035;28;20436;-84
2021/10/28 22:00:44;;;;;;;0.43;0.40;;;8.70;99.90;;;;;;5095207;28;20435;-84
2021/10/28 22:25:04;;;;;;;0.40;0.40;;;8.70;99.90;;;;;;5095376;28;20489;-84
2021/10/28 22:27:32;;;;;;;1.00;0.33;;;8.70;99.90;;;;;;5095597;28;20443;-84
2021/10/28 22:30:01;;;;;;;1.33;0.70;;;8.70;99.90;;;;;;5095192;28;20483;-84
2021/10/28 22:32:30;;;;;;;0.40;0.40;;;8.60;99.90;;;;;;5095411;28;20460;-84
2021/10/28 22:35:00;;;;;;;0.80;0.80;;;8.60;99.90;;;;;;5095389;28;20459;-84
2021/10/28 22:37:38;;;;;;;1.37;0.70;;;8.60;99.90;;;;;;5095412;28;20542;-84
2021/10/28 22:40:16;;;;;;;0.50;0.50;;;8.60;99.90;;;;;;5095004;28;20527;-84
2021/10/28 22:42:44;;;;;;;0.70;0.70;;;8.60;99.90;;;;;;5095253;28;20938;-84
2021/10/28 22:45:11;;;;;;;0.50;0.50;;;8.60;99.90;;;;;;5095106;28;20444;-84
2021/10/28 22:47:38;;;;;;;0.80;0.60;;;8.60;99.90;;;;;;5095235;28;20440;-84
2021/10/28 22:50:09;;;;;;;0.80;0.80;;;8.60;99.90;;;;;;5096905;28;20465;-84
2021/10/28 22:52:37;;;;;;;0.60;0.60;;;8.50;99.90;;;;;;5095135;28;20472;-84
2021/10/28 22:55:07;;;;;;;1.23;1.17;;;8.50;99.90;;;;;;5095127;28;20452;-84
2021/10/28 22:57:40;;;;;;;4.27;0.50;;;8.50;99.90;;;;;;5095143;28;20869;-84
2021/10/28 23:00:14;;;;;;;0.70;0.70;;;8.50;99.90;;;;;;5095058;28;20526;-84
2021/10/28 23:02:47;;;;;;;0.60;0.60;;;8.50;99.90;;;;;;5094777;28;20834;-84
2021/10/28 23:08:23;;;;;;;0.50;0.50;;;8.40;99.90;;;;;;5094770;28;20769;-84
2021/10/28 23:16:24;;;;;;;0.60;0.60;;;8.20;99.90;;;;;;5094626;28;20412;-84
2021/10/28 23:21:37;;;;;;;0.53;0.53;;;8.10;99.90;;;;;;5094255;28;20407;-84
2021/10/28 23:24:05;;;;;;;0.40;0.40;;;8.00;99.90;;;;;;5094421;28;20447;-83
2021/10/28 23:26:32;;;;;;;0.50;0.50;;;8.00;99.90;;;;;;5094477;28;20448;-84
2021/10/28 23:28:58;;;;;;;0.50;0.40;;;7.90;99.90;;;;;;5094701;28;20474;-83
2021/10/28 23:31:25;;;;;;;0.73;0.70;;;7.90;99.90;;;;;;5096423;28;20451;-83
2021/10/28 23:33:52;;;;;;;0.80;0.60;;;7.90;99.90;;;;;;5096464;28;20468;-84
2021/10/28 23:36:19;;;;;;;2.90;0.60;;;7.80;99.90;;;;;;5094773;28;20443;-84
2021/10/28 23:38:47;;;;;;;1.07;0.30;;;7.80;99.90;;;;;;5094195;28;20452;-84
2021/10/28 23:41:14;;;;;;;1.67;0.43;;;7.80;99.90;;;;;;5094184;28;20815;-84
2021/10/28 23:43:41;;;;;;;0.47;0.47;;;7.80;99.90;;;;;;5093645;28;20994;-84
2021/10/28 23:46:07;;;;;;;0.40;0.40;;;7.80;99.90;;;;;;5094065;28;20451;-84
2021/10/28 23:48:34;;;;;;;0.73;0.30;;;7.80;99.90;;;;;;5093973;28;20487;-83
2021/10/28 23:51:01;;;;;;;0.87;0.40;;;7.90;99.90;;;;;;5093684;28;20505;-84
2021/10/28 23:53:28;;;;;;;0.83;0.83;;;7.80;99.90;;;;;;5093885;28;20467;-84
2021/10/28 23:55:56;;;;;;;0.40;0.30;;;7.80;99.90;;;;;;5094004;28;20444;-84
2021/10/28 23:58:24;;;;;;;0.87;0.50;;;7.80;99.90;;;;;;5093929;28;20451;-84
